sensor_id;sensor_type;location;lat;lon;timestamp;P1;durP1;ratioP1;P2;durP2;ratioP2
79668;SDS011;69136;52.614;6.976;2023-07-29T03:07:38;10.55;;;5.47;;
79668;SDS011;69136;52.614;6.976;2023-07-29T05:27:53;8.73;;;5.45;;
79668;SDS011;69136;52.614;6.976;2023-07-29T05:31:33;9.65;;;5.53;;
79668;SDS011;69136;52.614;6.976;2023-07-29T05:35:10;8.73;;;5.40;;
79668;SDS011;69136;52.614;6.976;2023-07-29T05:38:09;7.78;;;4.95;;
79668;SDS011;69136;52.614;6.976;2023-07-29T05:50:47;8.43;;;5.43;;
79668;SDS011;69136;52.614;6.976;2023-07-29T05:54:53;8.85;;;4.93;;
79668;SDS011;69136;52.614;6.976;2023-07-29T06:03:10;6.97;;;4.10;;
79668;SDS011;69136;52.614;6.976;2023-07-29T06:06:32;9.55;;;4.93;;
79668;SDS011;69136;52.614;6.976;2023-07-29T06:23:16;10.02;;;5.78;;
79668;SDS011;69136;52.614;6.976;2023-07-29T06:26:13;10.13;;;6.30;;
79668;SDS011;69136;52.614;6.976;2023-07-29T06:29:16;14.50;;;6.85;;
79668;SDS011;69136;52.614;6.976;2023-07-29T06:35:59;10.38;;;5.90;;
79668;SDS011;69136;52.614;6.976;2023-07-29T06:38:44;7.93;;;5.35;;
79668;SDS011;69136;52.614;6.976;2023-07-29T06:45:00;11.38;;;5.82;;
79668;SDS011;69136;52.614;6.976;2023-07-29T06:48:04;8.90;;;5.95;;
79668;SDS011;69136;52.614;6.976;2023-07-29T06:51:30;9.07;;;4.80;;
79668;SDS011;69136;52.614;6.976;2023-07-29T06:54:53;8.02;;;4.75;;
79668;SDS011;69136;52.614;6.976;2023-07-29T06:57:47;7.72;;;4.75;;
79668;SDS011;69136;52.614;6.976;2023-07-29T07:00:50;9.15;;;4.47;;
79668;SDS011;69136;52.614;6.976;2023-07-29T07:03:40;7.97;;;4.63;;
79668;SDS011;69136;52.614;6.976;2023-07-29T07:06:25;6.63;;;4.40;;
79668;SDS011;69136;52.614;6.976;2023-07-29T07:09:37;7.50;;;4.72;;
79668;SDS011;69136;52.614;6.976;2023-07-29T07:16:20;7.30;;;4.32;;
79668;SDS011;69136;52.614;6.976;2023-07-29T07:19:43;7.32;;;4.28;;
79668;SDS011;69136;52.614;6.976;2023-07-29T07:22:52;8.88;;;5.43;;
79668;SDS011;69136;52.614;6.976;2023-07-29T07:26:03;9.93;;;4.95;;
79668;SDS011;69136;52.614;6.976;2023-07-29T07:29:30;6.82;;;5.75;;
79668;SDS011;69136;52.614;6.976;2023-07-29T07:32:41;6.75;;;4.70;;
79668;SDS011;69136;52.614;6.976;2023-07-29T07:41:45;7.65;;;5.18;;
79668;SDS011;69136;52.614;6.976;2023-07-29T07:44:38;7.43;;;5.55;;
79668;SDS011;69136;52.614;6.976;2023-07-29T07:47:37;7.80;;;5.55;;
79668;SDS011;69136;52.614;6.976;2023-07-29T07:50:43;8.80;;;5.80;;
79668;SDS011;69136;52.614;6.976;2023-07-29T07:53:36;8.25;;;5.35;;
79668;SDS011;69136;52.614;6.976;2023-07-29T07:56:42;7.65;;;5.15;;
79668;SDS011;69136;52.614;6.976;2023-07-29T07:59:51;11.13;;;6.20;;
79668;SDS011;69136;52.614;6.976;2023-07-29T08:02:36;6.63;;;5.32;;
79668;SDS011;69136;52.614;6.976;2023-07-29T08:06:04;7.05;;;5.10;;
79668;SDS011;69136;52.614;6.976;2023-07-29T08:09:11;6.40;;;4.93;;
79668;SDS011;69136;52.614;6.976;2023-07-29T08:12:07;6.38;;;4.53;;
79668;SDS011;69136;52.614;6.976;2023-07-29T08:18:20;8.30;;;5.10;;
79668;SDS011;69136;52.614;6.976;2023-07-29T08:21:08;5.85;;;4.03;;
79668;SDS011;69136;52.614;6.976;2023-07-29T08:24:02;6.22;;;4.20;;
79668;SDS011;69136;52.614;6.976;2023-07-29T08:26:47;7.88;;;4.38;;
79668;SDS011;69136;52.614;6.976;2023-07-29T08:29:33;6.07;;;4.10;;
79668;SDS011;69136;52.614;6.976;2023-07-29T08:32:24;8.52;;;4.32;;
79668;SDS011;69136;52.614;6.976;2023-07-29T08:35:13;6.45;;;4.10;;
79668;SDS011;69136;52.614;6.976;2023-07-29T08:38:03;11.07;;;3.75;;
79668;SDS011;69136;52.614;6.976;2023-07-29T08:47:20;5.75;;;3.08;;
79668;SDS011;69136;52.614;6.976;2023-07-29T08:50:10;4.35;;;2.90;;
79668;SDS011;69136;52.614;6.976;2023-07-29T08:53:30;6.18;;;3.35;;
79668;SDS011;69136;52.614;6.976;2023-07-29T08:59:26;5.65;;;3.35;;
79668;SDS011;69136;52.614;6.976;2023-07-29T09:02:49;5.40;;;3.40;;
79668;SDS011;69136;52.614;6.976;2023-07-29T09:05:45;5.50;;;3.00;;
79668;SDS011;69136;52.614;6.976;2023-07-29T09:08:38;4.07;;;2.55;;
79668;SDS011;69136;52.614;6.976;2023-07-29T09:11:26;4.30;;;3.03;;
79668;SDS011;69136;52.614;6.976;2023-07-29T09:14:12;4.50;;;2.53;;
79668;SDS011;69136;52.614;6.976;2023-07-29T09:20:47;5.05;;;2.60;;
79668;SDS011;69136;52.614;6.976;2023-07-29T09:23:43;3.47;;;2.40;;
79668;SDS011;69136;52.614;6.976;2023-07-29T09:26:39;5.32;;;2.55;;
79668;SDS011;69136;52.614;6.976;2023-07-29T09:29:27;5.82;;;2.28;;
79668;SDS011;69136;52.614;6.976;2023-07-29T09:32:28;3.47;;;2.15;;
79668;SDS011;69136;52.614;6.976;2023-07-29T09:41:46;2.35;;;1.77;;
79668;SDS011;69136;52.614;6.976;2023-07-29T09:44:36;2.10;;;1.67;;
79668;SDS011;69136;52.614;6.976;2023-07-29T09:47:24;3.20;;;1.70;;
79668;SDS011;69136;52.614;6.976;2023-07-29T09:50:11;2.00;;;1.80;;
79668;SDS011;69136;52.614;6.976;2023-07-29T09:52:56;4.10;;;1.80;;
79668;SDS011;69136;52.614;6.976;2023-07-29T09:55:50;2.60;;;1.55;;
79668;SDS011;69136;52.614;6.976;2023-07-29T09:59:07;2.55;;;1.25;;
79668;SDS011;69136;52.614;6.976;2023-07-29T10:02:02;2.63;;;1.58;;
79668;SDS011;69136;52.614;6.976;2023-07-29T10:04:57;2.50;;;1.90;;
79668;SDS011;69136;52.614;6.976;2023-07-29T10:07:53;5.50;;;2.03;;
79668;SDS011;69136;52.614;6.976;2023-07-29T10:10:37;6.40;;;2.00;;
79668;SDS011;69136;52.614;6.976;2023-07-29T10:13:47;4.95;;;2.50;;
79668;SDS011;69136;52.614;6.976;2023-07-29T10:16:47;3.55;;;1.90;;
79668;SDS011;69136;52.614;6.976;2023-07-29T10:19:35;3.75;;;2.60;;
79668;SDS011;69136;52.614;6.976;2023-07-29T10:22:21;4.63;;;2.58;;
79668;SDS011;69136;52.614;6.976;2023-07-29T10:25:38;2.78;;;2.58;;
79668;SDS011;69136;52.614;6.976;2023-07-29T10:28:36;3.95;;;2.17;;
79668;SDS011;69136;52.614;6.976;2023-07-29T10:31:42;2.75;;;2.22;;
79668;SDS011;69136;52.614;6.976;2023-07-29T10:35:40;2.83;;;2.50;;
79668;SDS011;69136;52.614;6.976;2023-07-29T10:42:05;3.97;;;3.20;;
79668;SDS011;69136;52.614;6.976;2023-07-29T10:48:56;3.78;;;2.67;;
79668;SDS011;69136;52.614;6.976;2023-07-29T10:51:43;3.38;;;2.60;;
79668;SDS011;69136;52.614;6.976;2023-07-29T10:54:42;3.97;;;3.00;;
79668;SDS011;69136;52.614;6.976;2023-07-29T10:57:34;4.40;;;2.95;;
79668;SDS011;69136;52.614;6.976;2023-07-29T11:04:50;5.70;;;3.13;;
79668;SDS011;69136;52.614;6.976;2023-07-29T11:11:05;6.03;;;3.03;;
79668;SDS011;69136;52.614;6.976;2023-07-29T11:17:45;3.13;;;2.80;;
79668;SDS011;69136;52.614;6.976;2023-07-29T11:20:49;4.25;;;3.17;;
79668;SDS011;69136;52.614;6.976;2023-07-29T11:24:13;4.35;;;3.08;;
79668;SDS011;69136;52.614;6.976;2023-07-29T11:27:17;3.78;;;3.00;;
79668;SDS011;69136;52.614;6.976;2023-07-29T11:30:19;4.38;;;3.47;;
79668;SDS011;69136;52.614;6.976;2023-07-29T11:34:13;4.35;;;3.33;;
79668;SDS011;69136;52.614;6.976;2023-07-29T11:37:40;4.50;;;3.25;;
79668;SDS011;69136;52.614;6.976;2023-07-29T11:40:33;3.72;;;3.10;;
79668;SDS011;69136;52.614;6.976;2023-07-29T11:43:43;4.57;;;2.90;;
79668;SDS011;69136;52.614;6.976;2023-07-29T11:46:49;4.97;;;3.13;;
79668;SDS011;69136;52.614;6.976;2023-07-29T11:50:16;3.85;;;3.35;;
79668;SDS011;69136;52.614;6.976;2023-07-29T11:59:42;3.22;;;2.97;;
79668;SDS011;69136;52.614;6.976;2023-07-29T12:02:41;4.38;;;3.50;;
79668;SDS011;69136;52.614;6.976;2023-07-29T12:05:28;5.28;;;3.85;;
79668;SDS011;69136;52.614;6.976;2023-07-29T12:08:33;6.05;;;3.70;;
79668;SDS011;69136;52.614;6.976;2023-07-29T12:11:34;4.25;;;2.97;;
79668;SDS011;69136;52.614;6.976;2023-07-29T12:14:57;4.53;;;3.25;;
79668;SDS011;69136;52.614;6.976;2023-07-29T12:18:42;3.38;;;3.00;;
79668;SDS011;69136;52.614;6.976;2023-07-29T12:43:16;3.72;;;2.85;;
79668;SDS011;69136;52.614;6.976;2023-07-29T12:46:02;3.72;;;2.60;;
79668;SDS011;69136;52.614;6.976;2023-07-29T12:48:48;3.25;;;2.53;;
79668;SDS011;69136;52.614;6.976;2023-07-29T12:51:38;5.30;;;2.95;;
79668;SDS011;69136;52.614;6.976;2023-07-29T12:54:23;5.50;;;3.45;;
79668;SDS011;69136;52.614;6.976;2023-07-29T13:08:10;4.72;;;3.28;;
79668;SDS011;69136;52.614;6.976;2023-07-29T13:11:09;5.55;;;3.63;;
79668;SDS011;69136;52.614;6.976;2023-07-29T13:17:32;4.82;;;3.45;;
79668;SDS011;69136;52.614;6.976;2023-07-29T13:23:37;3.80;;;2.65;;
79668;SDS011;69136;52.614;6.976;2023-07-29T13:26:54;2.42;;;1.73;;
79668;SDS011;69136;52.614;6.976;2023-07-29T13:29:39;2.35;;;1.70;;
79668;SDS011;69136;52.614;6.976;2023-07-29T13:32:33;2.22;;;1.90;;
79668;SDS011;69136;52.614;6.976;2023-07-29T13:47:33;2.28;;;1.65;;
79668;SDS011;69136;52.614;6.976;2023-07-29T13:55:04;1.98;;;1.88;;
79668;SDS011;69136;52.614;6.976;2023-07-29T13:58:25;2.10;;;1.90;;
79668;SDS011;69136;52.614;6.976;2023-07-29T14:01:35;1.77;;;1.30;;
79668;SDS011;69136;52.614;6.976;2023-07-29T14:04:57;2.70;;;1.20;;
79668;SDS011;69136;52.614;6.976;2023-07-29T14:07:42;1.30;;;1.20;;
79668;SDS011;69136;52.614;6.976;2023-07-29T14:11:30;0.90;;;0.90;;
79668;SDS011;69136;52.614;6.976;2023-07-29T14:14:43;2.42;;;1.35;;
79668;SDS011;69136;52.614;6.976;2023-07-29T14:17:46;1.48;;;1.02;;
79668;SDS011;69136;52.614;6.976;2023-07-29T14:21:07;1.60;;;1.20;;
79668;SDS011;69136;52.614;6.976;2023-07-29T14:24:39;3.38;;;1.40;;
79668;SDS011;69136;52.614;6.976;2023-07-29T14:27:34;2.95;;;1.80;;
79668;SDS011;69136;52.614;6.976;2023-07-29T14:30:58;2.88;;;2.28;;
79668;SDS011;69136;52.614;6.976;2023-07-29T14:34:36;1.65;;;1.45;;
79668;SDS011;69136;52.614;6.976;2023-07-29T14:37:36;1.50;;;1.40;;
79668;SDS011;69136;52.614;6.976;2023-07-29T14:41:58;2.03;;;1.60;;
79668;SDS011;69136;52.614;6.976;2023-07-29T14:45:09;1.58;;;1.33;;
79668;SDS011;69136;52.614;6.976;2023-07-29T14:48:38;1.75;;;1.08;;
79668;SDS011;69136;52.614;6.976;2023-07-29T14:51:33;1.17;;;1.08;;
79668;SDS011;69136;52.614;6.976;2023-07-29T14:58:15;0.80;;;0.60;;
79668;SDS011;69136;52.614;6.976;2023-07-29T15:01:15;1.40;;;1.08;;
79668;SDS011;69136;52.614;6.976;2023-07-29T15:04:54;2.55;;;1.20;;
79668;SDS011;69136;52.614;6.976;2023-07-29T15:08:33;1.20;;;1.05;;
79668;SDS011;69136;52.614;6.976;2023-07-29T15:18:03;1.63;;;0.90;;
79668;SDS011;69136;52.614;6.976;2023-07-29T15:20:52;1.25;;;1.00;;
79668;SDS011;69136;52.614;6.976;2023-07-29T15:23:42;1.85;;;1.10;;
79668;SDS011;69136;52.614;6.976;2023-07-29T15:27:05;2.38;;;1.33;;
79668;SDS011;69136;52.614;6.976;2023-07-29T15:30:08;1.42;;;1.10;;
79668;SDS011;69136;52.614;6.976;2023-07-29T15:33:08;2.10;;;1.30;;
79668;SDS011;69136;52.614;6.976;2023-07-29T15:36:19;2.05;;;1.20;;
79668;SDS011;69136;52.614;6.976;2023-07-29T15:39:21;1.13;;;1.00;;
79668;SDS011;69136;52.614;6.976;2023-07-29T15:43:05;1.50;;;1.17;;
79668;SDS011;69136;52.614;6.976;2023-07-29T15:46:37;1.25;;;1.15;;
79668;SDS011;69136;52.614;6.976;2023-07-29T15:50:24;2.40;;;1.40;;
79668;SDS011;69136;52.614;6.976;2023-07-29T15:53:34;2.40;;;1.30;;
79668;SDS011;69136;52.614;6.976;2023-07-29T15:56:43;2.95;;;1.80;;
79668;SDS011;69136;52.614;6.976;2023-07-29T15:59:47;2.97;;;2.67;;
79668;SDS011;69136;52.614;6.976;2023-07-29T16:03:15;6.10;;;2.33;;
79668;SDS011;69136;52.614;6.976;2023-07-29T16:23:52;3.15;;;2.53;;
79668;SDS011;69136;52.614;6.976;2023-07-29T16:27:24;2.78;;;2.05;;
79668;SDS011;69136;52.614;6.976;2023-07-29T16:30:52;3.28;;;2.40;;
79668;SDS011;69136;52.614;6.976;2023-07-29T16:42:52;3.03;;;2.38;;
79668;SDS011;69136;52.614;6.976;2023-07-29T16:51:34;3.10;;;2.80;;
79668;SDS011;69136;52.614;6.976;2023-07-29T16:54:58;3.33;;;2.10;;
79668;SDS011;69136;52.614;6.976;2023-07-29T16:58:20;2.88;;;2.40;;
79668;SDS011;69136;52.614;6.976;2023-07-29T17:02:43;3.15;;;2.33;;
79668;SDS011;69136;52.614;6.976;2023-07-29T17:10:01;3.67;;;2.40;;
79668;SDS011;69136;52.614;6.976;2023-07-29T17:17:19;4.47;;;2.25;;
79668;SDS011;69136;52.614;6.976;2023-07-29T17:20:23;4.60;;;2.28;;
79668;SDS011;69136;52.614;6.976;2023-07-29T17:23:38;2.00;;;1.80;;
79668;SDS011;69136;52.614;6.976;2023-07-29T17:27:10;2.83;;;1.83;;
79668;SDS011;69136;52.614;6.976;2023-07-29T17:31:08;2.35;;;1.95;;
79668;SDS011;69136;52.614;6.976;2023-07-29T17:39:03;3.47;;;2.05;;
79668;SDS011;69136;52.614;6.976;2023-07-29T17:42:35;2.42;;;2.03;;
79668;SDS011;69136;52.614;6.976;2023-07-29T17:59:33;1.98;;;1.77;;
79668;SDS011;69136;52.614;6.976;2023-07-29T18:03:15;2.92;;;1.75;;
79668;SDS011;69136;52.614;6.976;2023-07-29T18:06:14;3.20;;;1.95;;
79668;SDS011;69136;52.614;6.976;2023-07-29T18:10:13;3.50;;;2.22;;
79668;SDS011;69136;52.614;6.976;2023-07-29T18:14:00;2.15;;;1.90;;
79668;SDS011;69136;52.614;6.976;2023-07-29T18:17:04;2.80;;;2.38;;
79668;SDS011;69136;52.614;6.976;2023-07-29T18:20:11;2.33;;;2.00;;
79668;SDS011;69136;52.614;6.976;2023-07-29T18:23:14;2.30;;;2.10;;
79668;SDS011;69136;52.614;6.976;2023-07-29T18:26:37;1.92;;;1.77;;
79668;SDS011;69136;52.614;6.976;2023-07-29T18:29:51;2.50;;;1.88;;
79668;SDS011;69136;52.614;6.976;2023-07-29T18:32:55;2.17;;;1.98;;
79668;SDS011;69136;52.614;6.976;2023-07-29T18:49:32;1.80;;;1.45;;
79668;SDS011;69136;52.614;6.976;2023-07-29T18:53:25;1.75;;;1.60;;
79668;SDS011;69136;52.614;6.976;2023-07-29T18:56:56;2.83;;;1.95;;
79668;SDS011;69136;52.614;6.976;2023-07-29T19:00:25;2.08;;;1.83;;
79668;SDS011;69136;52.614;6.976;2023-07-29T19:03:43;1.83;;;1.50;;
79668;SDS011;69136;52.614;6.976;2023-07-29T19:07:05;3.28;;;1.20;;
79668;SDS011;69136;52.614;6.976;2023-07-29T19:10:24;2.10;;;1.65;;
79668;SDS011;69136;52.614;6.976;2023-07-29T19:17:27;2.83;;;1.55;;
79668;SDS011;69136;52.614;6.976;2023-07-29T19:20:40;1.63;;;1.52;;
79668;SDS011;69136;52.614;6.976;2023-07-29T19:24:57;1.85;;;1.30;;
79668;SDS011;69136;52.614;6.976;2023-07-29T19:32:31;1.80;;;1.70;;
79668;SDS011;69136;52.614;6.976;2023-07-29T19:41:06;5.68;;;3.25;;
79668;SDS011;69136;52.614;6.976;2023-07-29T19:44:29;5.72;;;2.83;;
79668;SDS011;69136;52.614;6.976;2023-07-29T19:47:17;8.30;;;2.65;;
79668;SDS011;69136;52.614;6.976;2023-07-29T19:50:02;4.63;;;2.22;;
79668;SDS011;69136;52.614;6.976;2023-07-29T19:52:46;4.78;;;2.15;;
79668;SDS011;69136;52.614;6.976;2023-07-29T19:55:30;4.07;;;2.05;;
79668;SDS011;69136;52.614;6.976;2023-07-29T19:58:14;5.95;;;2.83;;
79668;SDS011;69136;52.614;6.976;2023-07-29T20:00:58;3.72;;;2.22;;
79668;SDS011;69136;52.614;6.976;2023-07-29T20:03:42;6.28;;;2.13;;
79668;SDS011;69136;52.614;6.976;2023-07-29T20:06:26;5.18;;;1.85;;
79668;SDS011;69136;52.614;6.976;2023-07-29T20:09:11;4.45;;;1.95;;
79668;SDS011;69136;52.614;6.976;2023-07-29T20:11:55;4.10;;;2.30;;
79668;SDS011;69136;52.614;6.976;2023-07-29T20:14:39;3.30;;;1.85;;
79668;SDS011;69136;52.614;6.976;2023-07-29T20:17:23;4.82;;;2.38;;
79668;SDS011;69136;52.614;6.976;2023-07-29T20:20:08;4.45;;;2.55;;
79668;SDS011;69136;52.614;6.976;2023-07-29T20:22:52;4.32;;;2.30;;
79668;SDS011;69136;52.614;6.976;2023-07-29T20:25:36;6.60;;;2.17;;
79668;SDS011;69136;52.614;6.976;2023-07-29T20:28:20;4.50;;;2.60;;
79668;SDS011;69136;52.614;6.976;2023-07-29T20:31:04;7.18;;;3.45;;
79668;SDS011;69136;52.614;6.976;2023-07-29T20:33:49;4.57;;;2.70;;
79668;SDS011;69136;52.614;6.976;2023-07-29T20:36:33;3.65;;;2.20;;
79668;SDS011;69136;52.614;6.976;2023-07-29T20:39:17;3.95;;;2.30;;
79668;SDS011;69136;52.614;6.976;2023-07-29T20:42:01;2.50;;;1.83;;
79668;SDS011;69136;52.614;6.976;2023-07-29T20:44:46;2.50;;;1.73;;
79668;SDS011;69136;52.614;6.976;2023-07-29T20:47:31;3.15;;;1.80;;
79668;SDS011;69136;52.614;6.976;2023-07-29T20:50:18;2.58;;;1.92;;
79668;SDS011;69136;52.614;6.976;2023-07-29T20:53:06;3.55;;;2.33;;
79668;SDS011;69136;52.614;6.976;2023-07-29T20:55:50;3.92;;;2.33;;
79668;SDS011;69136;52.614;6.976;2023-07-29T20:58:34;4.07;;;2.25;;
79668;SDS011;69136;52.614;6.976;2023-07-29T21:01:18;4.72;;;2.17;;
79668;SDS011;69136;52.614;6.976;2023-07-29T21:04:02;3.72;;;2.25;;
79668;SDS011;69136;52.614;6.976;2023-07-29T21:06:46;5.90;;;2.13;;
79668;SDS011;69136;52.614;6.976;2023-07-29T21:09:31;2.95;;;2.22;;
79668;SDS011;69136;52.614;6.976;2023-07-29T21:12:15;4.05;;;2.38;;
79668;SDS011;69136;52.614;6.976;2023-07-29T21:15:00;4.90;;;2.30;;
79668;SDS011;69136;52.614;6.976;2023-07-29T21:17:45;3.88;;;2.28;;
79668;SDS011;69136;52.614;6.976;2023-07-29T21:20:29;3.58;;;1.92;;
79668;SDS011;69136;52.614;6.976;2023-07-29T21:23:13;3.38;;;2.15;;
79668;SDS011;69136;52.614;6.976;2023-07-29T21:25:58;3.58;;;2.30;;
79668;SDS011;69136;52.614;6.976;2023-07-29T21:28:42;3.60;;;1.75;;
79668;SDS011;69136;52.614;6.976;2023-07-29T21:31:26;4.55;;;2.40;;
79668;SDS011;69136;52.614;6.976;2023-07-29T21:34:10;2.78;;;2.30;;
79668;SDS011;69136;52.614;6.976;2023-07-29T21:36:54;5.18;;;2.58;;
79668;SDS011;69136;52.614;6.976;2023-07-29T21:39:38;7.22;;;2.25;;
79668;SDS011;69136;52.614;6.976;2023-07-29T21:42:22;5.13;;;2.47;;
79668;SDS011;69136;52.614;6.976;2023-07-29T21:45:07;2.67;;;2.03;;
79668;SDS011;69136;52.614;6.976;2023-07-29T21:47:52;3.95;;;2.80;;
79668;SDS011;69136;52.614;6.976;2023-07-29T21:50:36;7.13;;;2.13;;
79668;SDS011;69136;52.614;6.976;2023-07-29T21:53:20;2.95;;;2.17;;
79668;SDS011;69136;52.614;6.976;2023-07-29T21:56:05;3.75;;;2.42;;
79668;SDS011;69136;52.614;6.976;2023-07-29T21:58:49;4.22;;;2.60;;
79668;SDS011;69136;52.614;6.976;2023-07-29T22:01:33;4.65;;;2.50;;
79668;SDS011;69136;52.614;6.976;2023-07-29T22:04:17;3.78;;;2.50;;
79668;SDS011;69136;52.614;6.976;2023-07-29T22:07:01;4.80;;;3.40;;
79668;SDS011;69136;52.614;6.976;2023-07-29T22:09:46;4.00;;;2.33;;
79668;SDS011;69136;52.614;6.976;2023-07-29T22:12:30;4.22;;;2.45;;
79668;SDS011;69136;52.614;6.976;2023-07-29T22:15:15;3.55;;;2.97;;
79668;SDS011;69136;52.614;6.976;2023-07-29T22:17:59;4.82;;;3.30;;
79668;SDS011;69136;52.614;6.976;2023-07-29T22:20:51;5.57;;;3.05;;
79668;SDS011;69136;52.614;6.976;2023-07-29T22:23:39;3.90;;;2.97;;
79668;SDS011;69136;52.614;6.976;2023-07-29T22:26:23;4.68;;;3.67;;
79668;SDS011;69136;52.614;6.976;2023-07-29T22:29:07;4.03;;;3.40;;
79668;SDS011;69136;52.614;6.976;2023-07-29T22:31:51;7.25;;;4.13;;
79668;SDS011;69136;52.614;6.976;2023-07-29T22:34:35;4.53;;;3.05;;
79668;SDS011;69136;52.614;6.976;2023-07-29T22:37:19;6.07;;;3.58;;
79668;SDS011;69136;52.614;6.976;2023-07-29T22:40:04;7.32;;;3.95;;
79668;SDS011;69136;52.614;6.976;2023-07-29T22:42:48;5.85;;;4.10;;
79668;SDS011;69136;52.614;6.976;2023-07-29T22:45:33;6.18;;;3.75;;
79668;SDS011;69136;52.614;6.976;2023-07-29T22:48:17;6.03;;;3.67;;
79668;SDS011;69136;52.614;6.976;2023-07-29T22:51:01;7.32;;;4.60;;
79668;SDS011;69136;52.614;6.976;2023-07-29T22:53:46;6.82;;;4.47;;
79668;SDS011;69136;52.614;6.976;2023-07-29T22:56:30;6.55;;;4.43;;
79668;SDS011;69136;52.614;6.976;2023-07-29T22:59:14;6.53;;;4.60;;
79668;SDS011;69136;52.614;6.976;2023-07-29T23:01:58;6.70;;;4.65;;
79668;SDS011;69136;52.614;6.976;2023-07-29T23:04:42;8.23;;;4.68;;
79668;SDS011;69136;52.614;6.976;2023-07-29T23:07:27;6.90;;;4.57;;
79668;SDS011;69136;52.614;6.976;2023-07-29T23:10:11;10.20;;;4.07;;
79668;SDS011;69136;52.614;6.976;2023-07-29T23:12:55;7.47;;;3.92;;
79668;SDS011;69136;52.614;6.976;2023-07-29T23:15:40;6.18;;;3.88;;
79668;SDS011;69136;52.614;6.976;2023-07-29T23:18:25;5.72;;;3.78;;
79668;SDS011;69136;52.614;6.976;2023-07-29T23:21:10;7.20;;;4.13;;
79668;SDS011;69136;52.614;6.976;2023-07-29T23:23:57;7.10;;;4.13;;
79668;SDS011;69136;52.614;6.976;2023-07-29T23:26:42;9.43;;;4.25;;
79668;SDS011;69136;52.614;6.976;2023-07-29T23:29:26;7.30;;;3.17;;
79668;SDS011;69136;52.614;6.976;2023-07-29T23:32:11;5.63;;;3.58;;
79668;SDS011;69136;52.614;6.976;2023-07-29T23:34:56;6.47;;;3.63;;
79668;SDS011;69136;52.614;6.976;2023-07-29T23:37:40;8.45;;;3.90;;
79668;SDS011;69136;52.614;6.976;2023-07-29T23:40:25;8.63;;;3.33;;
79668;SDS011;69136;52.614;6.976;2023-07-29T23:43:09;6.60;;;3.53;;
79668;SDS011;69136;52.614;6.976;2023-07-29T23:45:54;8.45;;;4.03;;
79668;SDS011;69136;52.614;6.976;2023-07-29T23:48:38;9.40;;;4.18;;
79668;SDS011;69136;52.614;6.976;2023-07-29T23:51:23;6.43;;;3.72;;
79668;SDS011;69136;52.614;6.976;2023-07-29T23:54:07;7.50;;;3.83;;
79668;SDS011;69136;52.614;6.976;2023-07-29T23:56:52;9.25;;;4.20;;
79668;SDS011;69136;52.614;6.976;2023-07-29T23:59:36;9.35;;;4.25;;
